sensor_id;sensor_type;location;lat;lon;timestamp;temperature;humidity
43581;DHT22;29175;51.030;4.606;2024-02-28T00:01:51;4.10;99.90
43581;DHT22;29175;51.030;4.606;2024-02-28T00:04:19;4.40;99.90
43581;DHT22;29175;51.030;4.606;2024-02-28T00:06:48;4.50;99.90
43581;DHT22;29175;51.030;4.606;2024-02-28T00:09:17;4.50;99.90
43581;DHT22;29175;51.030;4.606;2024-02-28T00:11:46;4.60;99.90
43581;DHT22;29175;51.030;4.606;2024-02-28T00:14:13;4.40;99.90
43581;DHT22;29175;51.030;4.606;2024-02-28T00:16:45;4.50;99.90
43581;DHT22;29175;51.030;4.606;2024-02-28T00:19:12;4.60;99.90
43581;DHT22;29175;51.030;4.606;2024-02-28T00:21:41;4.80;99.90
43581;DHT22;29175;51.030;4.606;2024-02-28T00:24:08;4.90;99.90
43581;DHT22;29175;51.030;4.606;2024-02-28T00:26:35;4.90;99.90
43581;DHT22;29175;51.030;4.606;2024-02-28T00:29:02;4.90;99.90
43581;DHT22;29175;51.030;4.606;2024-02-28T00:31:30;4.90;99.90
43581;DHT22;29175;51.030;4.606;2024-02-28T00:33:58;4.80;99.90
43581;DHT22;29175;51.030;4.606;2024-02-28T00:36:24;4.60;99.90
43581;DHT22;29175;51.030;4.606;2024-02-28T00:38:50;4.40;99.90
43581;DHT22;29175;51.030;4.606;2024-02-28T00:41:16;4.50;99.90
43581;DHT22;29175;51.030;4.606;2024-02-28T00:43:42;4.30;99.90
43581;DHT22;29175;51.030;4.606;2024-02-28T00:46:07;4.10;99.90
43581;DHT22;29175;51.030;4.606;2024-02-28T00:48:39;4.20;99.90
43581;DHT22;29175;51.030;4.606;2024-02-28T00:51:06;4.40;99.90
43581;DHT22;29175;51.030;4.606;2024-02-28T00:53:35;4.20;99.90
43581;DHT22;29175;51.030;4.606;2024-02-28T00:56:02;4.20;99.90
43581;DHT22;29175;51.030;4.606;2024-02-28T00:58:28;4.30;99.90
43581;DHT22;29175;51.030;4.606;2024-02-28T01:00:57;4.30;99.90
43581;DHT22;29175;51.030;4.606;2024-02-28T01:03:23;4.20;99.90
43581;DHT22;29175;51.030;4.606;2024-02-28T01:05:50;4.20;99.90
43581;DHT22;29175;51.030;4.606;2024-02-28T01:08:17;4.20;99.90
43581;DHT22;29175;51.030;4.606;2024-02-28T01:10:44;4.10;99.90
43581;DHT22;29175;51.030;4.606;2024-02-28T01:13:12;4.10;99.90
43581;DHT22;29175;51.030;4.606;2024-02-28T01:15:41;4.10;99.90
43581;DHT22;29175;51.030;4.606;2024-02-28T01:18:09;4.20;99.90
43581;DHT22;29175;51.030;4.606;2024-02-28T01:20:36;4.20;99.90
43581;DHT22;29175;51.030;4.606;2024-02-28T01:23:02;3.90;99.90
43581;DHT22;29175;51.030;4.606;2024-02-28T01:25:29;3.80;99.90
43581;DHT22;29175;51.030;4.606;2024-02-28T01:27:56;3.70;99.90
43581;DHT22;29175;51.030;4.606;2024-02-28T01:30:24;3.60;99.90
43581;DHT22;29175;51.030;4.606;2024-02-28T01:32:51;3.50;99.90
43581;DHT22;29175;51.030;4.606;2024-02-28T01:35:17;3.60;99.90
43581;DHT22;29175;51.030;4.606;2024-02-28T01:37:44;3.50;99.90
43581;DHT22;29175;51.030;4.606;2024-02-28T01:40:10;3.70;99.90
43581;DHT22;29175;51.030;4.606;2024-02-28T01:42:38;3.60;99.90
43581;DHT22;29175;51.030;4.606;2024-02-28T01:45:04;3.60;99.90
43581;DHT22;29175;51.030;4.606;2024-02-28T01:47:32;3.60;99.90
43581;DHT22;29175;51.030;4.606;2024-02-28T01:50:00;3.50;99.90
43581;DHT22;29175;51.030;4.606;2024-02-28T01:52:26;3.50;99.90
43581;DHT22;29175;51.030;4.606;2024-02-28T01:54:52;3.30;99.90
43581;DHT22;29175;51.030;4.606;2024-02-28T01:57:18;3.40;99.90
43581;DHT22;29175;51.030;4.606;2024-02-28T01:59:44;3.40;99.90
43581;DHT22;29175;51.030;4.606;2024-02-28T02:02:11;3.50;99.90
43581;DHT22;29175;51.030;4.606;2024-02-28T02:04:39;3.50;99.90
43581;DHT22;29175;51.030;4.606;2024-02-28T02:07:06;3.50;99.90
43581;DHT22;29175;51.030;4.606;2024-02-28T02:09:34;3.30;99.90
43581;DHT22;29175;51.030;4.606;2024-02-28T02:12:02;3.30;99.90
43581;DHT22;29175;51.030;4.606;2024-02-28T02:14:28;3.30;99.90
43581;DHT22;29175;51.030;4.606;2024-02-28T02:16:57;3.50;99.90
43581;DHT22;29175;51.030;4.606;2024-02-28T02:19:23;3.20;99.90
43581;DHT22;29175;51.030;4.606;2024-02-28T02:22:01;3.20;99.90
43581;DHT22;29175;51.030;4.606;2024-02-28T02:24:29;3.20;99.90
43581;DHT22;29175;51.030;4.606;2024-02-28T02:27:00;3.30;99.90
43581;DHT22;29175;51.030;4.606;2024-02-28T02:29:26;3.50;99.90
43581;DHT22;29175;51.030;4.606;2024-02-28T02:31:54;3.50;99.90
43581;DHT22;29175;51.030;4.606;2024-02-28T02:34:22;3.60;99.90
43581;DHT22;29175;51.030;4.606;2024-02-28T02:36:47;3.70;99.90
43581;DHT22;29175;51.030;4.606;2024-02-28T02:39:14;3.70;99.90
43581;DHT22;29175;51.030;4.606;2024-02-28T02:41:41;3.50;99.90
43581;DHT22;29175;51.030;4.606;2024-02-28T02:44:08;3.60;99.90
43581;DHT22;29175;51.030;4.606;2024-02-28T02:46:34;3.30;99.90
43581;DHT22;29175;51.030;4.606;2024-02-28T02:49:01;3.50;99.90
43581;DHT22;29175;51.030;4.606;2024-02-28T02:51:30;3.20;99.90
43581;DHT22;29175;51.030;4.606;2024-02-28T02:53:56;3.20;99.90
43581;DHT22;29175;51.030;4.606;2024-02-28T02:56:23;3.10;99.90
43581;DHT22;29175;51.030;4.606;2024-02-28T02:58:50;3.10;99.90
43581;DHT22;29175;51.030;4.606;2024-02-28T03:01:15;3.20;99.90
43581;DHT22;29175;51.030;4.606;2024-02-28T03:03:44;3.30;99.90
43581;DHT22;29175;51.030;4.606;2024-02-28T03:06:11;3.30;99.90
43581;DHT22;29175;51.030;4.606;2024-02-28T03:08:37;3.20;99.90
43581;DHT22;29175;51.030;4.606;2024-02-28T03:11:05;3.10;99.90
43581;DHT22;29175;51.030;4.606;2024-02-28T03:13:37;3.20;99.90
43581;DHT22;29175;51.030;4.606;2024-02-28T03:16:06;3.00;99.90
43581;DHT22;29175;51.030;4.606;2024-02-28T03:18:32;3.00;99.90
43581;DHT22;29175;51.030;4.606;2024-02-28T03:20:59;3.20;99.90
43581;DHT22;29175;51.030;4.606;2024-02-28T03:23:25;3.40;99.90
43581;DHT22;29175;51.030;4.606;2024-02-28T03:25:54;3.10;99.90
43581;DHT22;29175;51.030;4.606;2024-02-28T03:28:25;3.20;99.90
43581;DHT22;29175;51.030;4.606;2024-02-28T03:30:54;3.00;99.90
43581;DHT22;29175;51.030;4.606;2024-02-28T03:33:20;3.10;99.90
43581;DHT22;29175;51.030;4.606;2024-02-28T03:35:47;3.00;99.90
43581;DHT22;29175;51.030;4.606;2024-02-28T03:38:14;2.90;99.90
43581;DHT22;29175;51.030;4.606;2024-02-28T03:40:39;2.80;99.90
43581;DHT22;29175;51.030;4.606;2024-02-28T03:43:08;3.00;99.90
43581;DHT22;29175;51.030;4.606;2024-02-28T03:45:37;2.70;99.90
43581;DHT22;29175;51.030;4.606;2024-02-28T03:48:12;2.70;99.90
43581;DHT22;29175;51.030;4.606;2024-02-28T03:50:41;2.90;99.90
43581;DHT22;29175;51.030;4.606;2024-02-28T03:53:10;2.60;99.90
43581;DHT22;29175;51.030;4.606;2024-02-28T03:55:36;2.80;99.90
43581;DHT22;29175;51.030;4.606;2024-02-28T03:58:06;2.80;99.90
43581;DHT22;29175;51.030;4.606;2024-02-28T04:00:35;2.70;99.90
43581;DHT22;29175;51.030;4.606;2024-02-28T04:03:03;2.60;99.90
43581;DHT22;29175;51.030;4.606;2024-02-28T04:05:29;2.50;99.90
43581;DHT22;29175;51.030;4.606;2024-02-28T04:07:58;2.50;99.90
43581;DHT22;29175;51.030;4.606;2024-02-28T04:10:25;2.60;99.90
43581;DHT22;29175;51.030;4.606;2024-02-28T04:12:51;2.70;99.90
43581;DHT22;29175;51.030;4.606;2024-02-28T04:15:17;2.80;99.90
43581;DHT22;29175;51.030;4.606;2024-02-28T04:17:45;2.80;99.90
43581;DHT22;29175;51.030;4.606;2024-02-28T04:20:12;2.70;99.90
43581;DHT22;29175;51.030;4.606;2024-02-28T04:22:39;2.40;99.90
43581;DHT22;29175;51.030;4.606;2024-02-28T04:25:07;2.40;99.90
43581;DHT22;29175;51.030;4.606;2024-02-28T04:27:38;2.30;99.90
43581;DHT22;29175;51.030;4.606;2024-02-28T04:30:05;2.60;99.90
43581;DHT22;29175;51.030;4.606;2024-02-28T04:32:32;2.40;99.90
43581;DHT22;29175;51.030;4.606;2024-02-28T04:34:58;2.50;99.90
43581;DHT22;29175;51.030;4.606;2024-02-28T04:37:25;2.40;99.90
43581;DHT22;29175;51.030;4.606;2024-02-28T04:39:53;2.50;99.90
43581;DHT22;29175;51.030;4.606;2024-02-28T04:42:18;2.30;99.90
43581;DHT22;29175;51.030;4.606;2024-02-28T04:44:46;2.30;99.90
43581;DHT22;29175;51.030;4.606;2024-02-28T04:47:18;2.50;99.90
43581;DHT22;29175;51.030;4.606;2024-02-28T04:49:44;2.40;99.90
43581;DHT22;29175;51.030;4.606;2024-02-28T04:52:11;2.30;99.90
43581;DHT22;29175;51.030;4.606;2024-02-28T04:54:40;2.20;99.90
43581;DHT22;29175;51.030;4.606;2024-02-28T04:57:10;2.10;99.90
43581;DHT22;29175;51.030;4.606;2024-02-28T04:59:35;2.20;99.90
43581;DHT22;29175;51.030;4.606;2024-02-28T05:02:01;2.50;99.90
43581;DHT22;29175;51.030;4.606;2024-02-28T05:04:27;2.10;99.90
43581;DHT22;29175;51.030;4.606;2024-02-28T05:06:53;2.40;99.90
43581;DHT22;29175;51.030;4.606;2024-02-28T05:09:22;2.20;99.90
43581;DHT22;29175;51.030;4.606;2024-02-28T05:11:47;2.40;99.90
43581;DHT22;29175;51.030;4.606;2024-02-28T05:14:14;2.30;99.90
43581;DHT22;29175;51.030;4.606;2024-02-28T05:16:42;2.20;99.90
43581;DHT22;29175;51.030;4.606;2024-02-28T05:19:09;2.20;99.90
43581;DHT22;29175;51.030;4.606;2024-02-28T05:21:42;2.40;99.90
43581;DHT22;29175;51.030;4.606;2024-02-28T05:24:10;2.20;99.90
43581;DHT22;29175;51.030;4.606;2024-02-28T05:26:36;2.40;99.90
43581;DHT22;29175;51.030;4.606;2024-02-28T05:29:05;2.60;99.90
43581;DHT22;29175;51.030;4.606;2024-02-28T05:31:32;2.40;99.90
43581;DHT22;29175;51.030;4.606;2024-02-28T05:34:01;2.60;99.90
43581;DHT22;29175;51.030;4.606;2024-02-28T05:36:33;2.40;99.90
43581;DHT22;29175;51.030;4.606;2024-02-28T05:39:01;2.50;99.90
43581;DHT22;29175;51.030;4.606;2024-02-28T05:41:33;2.40;99.90
43581;DHT22;29175;51.030;4.606;2024-02-28T05:44:00;2.60;99.90
43581;DHT22;29175;51.030;4.606;2024-02-28T05:46:25;2.40;99.90
43581;DHT22;29175;51.030;4.606;2024-02-28T05:48:52;2.60;99.90
43581;DHT22;29175;51.030;4.606;2024-02-28T05:51:19;2.60;99.90
43581;DHT22;29175;51.030;4.606;2024-02-28T05:53:46;2.60;99.90
43581;DHT22;29175;51.030;4.606;2024-02-28T05:56:12;2.50;99.90
43581;DHT22;29175;51.030;4.606;2024-02-28T05:58:44;2.50;99.90
43581;DHT22;29175;51.030;4.606;2024-02-28T06:01:10;2.20;99.90
43581;DHT22;29175;51.030;4.606;2024-02-28T06:03:37;2.20;99.90
43581;DHT22;29175;51.030;4.606;2024-02-28T06:06:04;2.40;99.90
43581;DHT22;29175;51.030;4.606;2024-02-28T06:08:37;2.30;99.90
43581;DHT22;29175;51.030;4.606;2024-02-28T06:11:03;2.50;99.90
43581;DHT22;29175;51.030;4.606;2024-02-28T06:13:30;2.30;99.90
43581;DHT22;29175;51.030;4.606;2024-02-28T06:15:56;2.40;99.90
43581;DHT22;29175;51.030;4.606;2024-02-28T06:18:28;2.30;99.90
43581;DHT22;29175;51.030;4.606;2024-02-28T06:20:57;2.50;99.90
43581;DHT22;29175;51.030;4.606;2024-02-28T06:23:23;2.30;99.90
43581;DHT22;29175;51.030;4.606;2024-02-28T06:25:52;2.50;99.90
43581;DHT22;29175;51.030;4.606;2024-02-28T06:28:19;2.60;99.90
43581;DHT22;29175;51.030;4.606;2024-02-28T06:30:44;2.40;99.90
43581;DHT22;29175;51.030;4.606;2024-02-28T06:33:14;2.10;99.90
43581;DHT22;29175;51.030;4.606;2024-02-28T06:35:40;2.50;99.90
43581;DHT22;29175;51.030;4.606;2024-02-28T06:38:06;2.20;99.90
43581;DHT22;29175;51.030;4.606;2024-02-28T06:40:34;2.40;99.90
43581;DHT22;29175;51.030;4.606;2024-02-28T06:43:01;2.60;99.90
43581;DHT22;29175;51.030;4.606;2024-02-28T06:45:27;2.50;99.90
43581;DHT22;29175;51.030;4.606;2024-02-28T06:47:53;2.80;99.90
43581;DHT22;29175;51.030;4.606;2024-02-28T06:50:20;2.90;99.90
43581;DHT22;29175;51.030;4.606;2024-02-28T06:52:46;2.80;99.90
43581;DHT22;29175;51.030;4.606;2024-02-28T06:55:12;3.00;99.90
43581;DHT22;29175;51.030;4.606;2024-02-28T06:57:45;3.00;99.90
43581;DHT22;29175;51.030;4.606;2024-02-28T07:00:11;3.00;99.90
43581;DHT22;29175;51.030;4.606;2024-02-28T07:02:39;2.70;99.90
43581;DHT22;29175;51.030;4.606;2024-02-28T07:05:05;2.80;99.90
43581;DHT22;29175;51.030;4.606;2024-02-28T07:07:33;2.80;99.90
43581;DHT22;29175;51.030;4.606;2024-02-28T07:09:59;3.30;99.90
43581;DHT22;29175;51.030;4.606;2024-02-28T07:12:28;3.60;99.90
43581;DHT22;29175;51.030;4.606;2024-02-28T07:14:54;3.60;99.90
43581;DHT22;29175;51.030;4.606;2024-02-28T07:17:23;3.70;99.90
43581;DHT22;29175;51.030;4.606;2024-02-28T07:19:48;3.60;99.90
43581;DHT22;29175;51.030;4.606;2024-02-28T07:22:16;3.70;99.90
43581;DHT22;29175;51.030;4.606;2024-02-28T07:24:45;3.90;99.90
43581;DHT22;29175;51.030;4.606;2024-02-28T07:27:14;3.90;99.90
43581;DHT22;29175;51.030;4.606;2024-02-28T07:29:40;4.20;99.90
43581;DHT22;29175;51.030;4.606;2024-02-28T07:32:06;4.10;99.90
43581;DHT22;29175;51.030;4.606;2024-02-28T07:34:34;4.10;99.90
43581;DHT22;29175;51.030;4.606;2024-02-28T07:37:01;4.20;99.90
43581;DHT22;29175;51.030;4.606;2024-02-28T07:39:26;4.30;99.90
43581;DHT22;29175;51.030;4.606;2024-02-28T07:41:52;4.50;99.90
43581;DHT22;29175;51.030;4.606;2024-02-28T07:44:19;4.50;99.90
43581;DHT22;29175;51.030;4.606;2024-02-28T07:46:45;4.80;99.90
43581;DHT22;29175;51.030;4.606;2024-02-28T07:49:12;5.00;99.90
43581;DHT22;29175;51.030;4.606;2024-02-28T07:51:39;5.20;99.90
43581;DHT22;29175;51.030;4.606;2024-02-28T07:54:07;5.30;99.90
43581;DHT22;29175;51.030;4.606;2024-02-28T07:56:33;5.20;99.90
43581;DHT22;29175;51.030;4.606;2024-02-28T07:59:01;5.40;99.90
43581;DHT22;29175;51.030;4.606;2024-02-28T08:01:28;5.40;99.90
43581;DHT22;29175;51.030;4.606;2024-02-28T08:03:54;5.60;99.90
43581;DHT22;29175;51.030;4.606;2024-02-28T08:06:21;5.90;99.90
43581;DHT22;29175;51.030;4.606;2024-02-28T08:08:49;5.90;99.90
43581;DHT22;29175;51.030;4.606;2024-02-28T08:11:15;6.10;99.90
43581;DHT22;29175;51.030;4.606;2024-02-28T08:13:41;6.10;99.90
43581;DHT22;29175;51.030;4.606;2024-02-28T08:16:07;6.40;99.90
43581;DHT22;29175;51.030;4.606;2024-02-28T08:18:34;6.60;99.90
43581;DHT22;29175;51.030;4.606;2024-02-28T08:21:00;6.70;99.90
43581;DHT22;29175;51.030;4.606;2024-02-28T08:23:27;6.80;99.90
43581;DHT22;29175;51.030;4.606;2024-02-28T08:25:54;6.90;99.90
43581;DHT22;29175;51.030;4.606;2024-02-28T08:28:21;7.10;99.90
43581;DHT22;29175;51.030;4.606;2024-02-28T08:30:48;6.90;99.90
43581;DHT22;29175;51.030;4.606;2024-02-28T08:33:19;6.80;99.90
43581;DHT22;29175;51.030;4.606;2024-02-28T08:35:48;7.00;99.90
43581;DHT22;29175;51.030;4.606;2024-02-28T08:38:16;7.10;99.90
43581;DHT22;29175;51.030;4.606;2024-02-28T08:40:42;7.30;99.90
43581;DHT22;29175;51.030;4.606;2024-02-28T08:43:10;7.30;99.90
43581;DHT22;29175;51.030;4.606;2024-02-28T08:45:36;7.20;99.90
43581;DHT22;29175;51.030;4.606;2024-02-28T08:48:02;7.10;99.90
43581;DHT22;29175;51.030;4.606;2024-02-28T08:50:28;7.40;99.90
43581;DHT22;29175;51.030;4.606;2024-02-28T08:52:54;7.60;99.90
43581;DHT22;29175;51.030;4.606;2024-02-28T08:55:21;7.60;99.90
43581;DHT22;29175;51.030;4.606;2024-02-28T08:57:49;7.90;99.90
43581;DHT22;29175;51.030;4.606;2024-02-28T09:00:15;7.80;99.90
43581;DHT22;29175;51.030;4.606;2024-02-28T09:02:43;7.80;99.90
43581;DHT22;29175;51.030;4.606;2024-02-28T09:05:12;7.60;99.90
43581;DHT22;29175;51.030;4.606;2024-02-28T09:07:38;7.60;99.90
43581;DHT22;29175;51.030;4.606;2024-02-28T09:10:05;7.50;99.90
43581;DHT22;29175;51.030;4.606;2024-02-28T09:12:31;7.80;99.90
43581;DHT22;29175;51.030;4.606;2024-02-28T09:14:57;7.90;99.90
43581;DHT22;29175;51.030;4.606;2024-02-28T09:17:27;7.60;99.90
43581;DHT22;29175;51.030;4.606;2024-02-28T09:19:54;7.80;99.90
43581;DHT22;29175;51.030;4.606;2024-02-28T09:22:23;7.90;99.90
43581;DHT22;29175;51.030;4.606;2024-02-28T09:24:51;7.70;99.90
43581;DHT22;29175;51.030;4.606;2024-02-28T09:27:20;7.80;99.90
43581;DHT22;29175;51.030;4.606;2024-02-28T09:29:46;7.50;99.90
43581;DHT22;29175;51.030;4.606;2024-02-28T09:32:13;7.50;99.90
43581;DHT22;29175;51.030;4.606;2024-02-28T09:34:42;7.70;99.90
43581;DHT22;29175;51.030;4.606;2024-02-28T09:37:07;7.70;99.90
43581;DHT22;29175;51.030;4.606;2024-02-28T09:39:34;8.10;99.90
43581;DHT22;29175;51.030;4.606;2024-02-28T09:42:01;8.10;99.90
43581;DHT22;29175;51.030;4.606;2024-02-28T09:44:28;8.10;99.90
43581;DHT22;29175;51.030;4.606;2024-02-28T09:46:55;8.00;99.90
43581;DHT22;29175;51.030;4.606;2024-02-28T09:49:22;8.00;99.90
43581;DHT22;29175;51.030;4.606;2024-02-28T09:51:51;8.30;99.90
43581;DHT22;29175;51.030;4.606;2024-02-28T09:54:19;8.00;99.90
43581;DHT22;29175;51.030;4.606;2024-02-28T09:56:47;8.20;99.90
43581;DHT22;29175;51.030;4.606;2024-02-28T09:59:15;8.10;99.90
43581;DHT22;29175;51.030;4.606;2024-02-28T10:01:49;8.00;99.90
43581;DHT22;29175;51.030;4.606;2024-02-28T10:04:19;8.10;99.90
43581;DHT22;29175;51.030;4.606;2024-02-28T10:06:48;8.30;99.90
43581;DHT22;29175;51.030;4.606;2024-02-28T10:09:15;8.40;99.90
43581;DHT22;29175;51.030;4.606;2024-02-28T10:11:41;8.20;99.90
43581;DHT22;29175;51.030;4.606;2024-02-28T10:14:10;8.20;99.90
43581;DHT22;29175;51.030;4.606;2024-02-28T10:16:35;8.30;99.90
43581;DHT22;29175;51.030;4.606;2024-02-28T10:19:05;8.20;99.90
43581;DHT22;29175;51.030;4.606;2024-02-28T10:21:31;8.30;99.90
43581;DHT22;29175;51.030;4.606;2024-02-28T10:24:01;8.30;99.90
43581;DHT22;29175;51.030;4.606;2024-02-28T10:26:29;8.50;99.90
43581;DHT22;29175;51.030;4.606;2024-02-28T10:28:58;8.60;99.90
43581;DHT22;29175;51.030;4.606;2024-02-28T10:31:26;8.90;99.90
43581;DHT22;29175;51.030;4.606;2024-02-28T10:33:52;9.10;99.90
43581;DHT22;29175;51.030;4.606;2024-02-28T10:36:19;9.30;99.90
43581;DHT22;29175;51.030;4.606;2024-02-28T10:38:46;9.50;99.90
43581;DHT22;29175;51.030;4.606;2024-02-28T10:41:13;9.70;99.90
43581;DHT22;29175;51.030;4.606;2024-02-28T10:43:41;10.00;99.90
43581;DHT22;29175;51.030;4.606;2024-02-28T10:46:09;10.20;99.90
43581;DHT22;29175;51.030;4.606;2024-02-28T10:48:35;10.40;99.90
43581;DHT22;29175;51.030;4.606;2024-02-28T10:51:03;10.40;99.90
43581;DHT22;29175;51.030;4.606;2024-02-28T10:53:37;10.70;99.90
43581;DHT22;29175;51.030;4.606;2024-02-28T10:56:05;10.80;99.90
43581;DHT22;29175;51.030;4.606;2024-02-28T10:58:37;10.70;99.90
43581;DHT22;29175;51.030;4.606;2024-02-28T11:01:11;10.60;99.90
43581;DHT22;29175;51.030;4.606;2024-02-28T11:03:36;10.50;99.90
43581;DHT22;29175;51.030;4.606;2024-02-28T11:06:02;10.70;99.90
43581;DHT22;29175;51.030;4.606;2024-02-28T11:08:29;10.40;99.90
43581;DHT22;29175;51.030;4.606;2024-02-28T11:11:02;10.40;99.90
43581;DHT22;29175;51.030;4.606;2024-02-28T11:13:30;10.30;99.90
43581;DHT22;29175;51.030;4.606;2024-02-28T11:16:09;10.30;99.90
43581;DHT22;29175;51.030;4.606;2024-02-28T11:18:36;10.30;99.90
43581;DHT22;29175;51.030;4.606;2024-02-28T11:21:17;10.50;99.90
43581;DHT22;29175;51.030;4.606;2024-02-28T11:23:47;10.60;99.90
43581;DHT22;29175;51.030;4.606;2024-02-28T11:26:15;10.40;99.90
43581;DHT22;29175;51.030;4.606;2024-02-28T11:28:43;10.60;99.90
43581;DHT22;29175;51.030;4.606;2024-02-28T11:31:11;10.70;99.90
43581;DHT22;29175;51.030;4.606;2024-02-28T11:33:36;10.80;99.90
43581;DHT22;29175;51.030;4.606;2024-02-28T11:36:04;10.70;99.90
43581;DHT22;29175;51.030;4.606;2024-02-28T11:38:30;10.80;99.90
43581;DHT22;29175;51.030;4.606;2024-02-28T11:40:57;10.80;99.90
43581;DHT22;29175;51.030;4.606;2024-02-28T11:43:24;10.70;99.90
43581;DHT22;29175;51.030;4.606;2024-02-28T11:45:51;10.60;99.90
43581;DHT22;29175;51.030;4.606;2024-02-28T11:48:18;10.80;99.90
43581;DHT22;29175;51.030;4.606;2024-02-28T11:50:44;10.80;99.90
43581;DHT22;29175;51.030;4.606;2024-02-28T11:53:10;10.80;99.90
43581;DHT22;29175;51.030;4.606;2024-02-28T11:55:37;10.80;99.90
43581;DHT22;29175;51.030;4.606;2024-02-28T11:58:08;10.70;99.90
43581;DHT22;29175;51.030;4.606;2024-02-28T12:00:47;10.70;99.90
43581;DHT22;29175;51.030;4.606;2024-02-28T12:03:13;10.50;99.90
43581;DHT22;29175;51.030;4.606;2024-02-28T12:05:44;10.60;99.90
43581;DHT22;29175;51.030;4.606;2024-02-28T12:08:11;10.80;99.90
43581;DHT22;29175;51.030;4.606;2024-02-28T12:10:37;11.00;99.90
43581;DHT22;29175;51.030;4.606;2024-02-28T12:13:09;11.10;99.90
43581;DHT22;29175;51.030;4.606;2024-02-28T12:15:35;11.20;99.90
43581;DHT22;29175;51.030;4.606;2024-02-28T12:18:08;11.20;99.90
43581;DHT22;29175;51.030;4.606;2024-02-28T12:20:36;11.40;99.90
43581;DHT22;29175;51.030;4.606;2024-02-28T12:23:04;11.30;99.90
43581;DHT22;29175;51.030;4.606;2024-02-28T12:25:32;11.40;99.90
43581;DHT22;29175;51.030;4.606;2024-02-28T12:28:01;11.60;99.90
43581;DHT22;29175;51.030;4.606;2024-02-28T12:30:27;11.70;99.90
43581;DHT22;29175;51.030;4.606;2024-02-28T12:32:54;11.90;99.90
43581;DHT22;29175;51.030;4.606;2024-02-28T12:35:21;12.00;99.90
43581;DHT22;29175;51.030;4.606;2024-02-28T12:37:46;12.20;99.90
43581;DHT22;29175;51.030;4.606;2024-02-28T12:40:14;12.00;99.90
43581;DHT22;29175;51.030;4.606;2024-02-28T12:42:43;11.90;99.90
43581;DHT22;29175;51.030;4.606;2024-02-28T12:45:09;11.90;99.90
43581;DHT22;29175;51.030;4.606;2024-02-28T12:47:36;12.00;99.90
43581;DHT22;29175;51.030;4.606;2024-02-28T12:50:03;12.00;99.90
43581;DHT22;29175;51.030;4.606;2024-02-28T12:52:29;12.20;99.90
43581;DHT22;29175;51.030;4.606;2024-02-28T12:54:55;12.40;99.90
43581;DHT22;29175;51.030;4.606;2024-02-28T12:57:23;12.20;99.90
43581;DHT22;29175;51.030;4.606;2024-02-28T12:59:48;12.30;99.90
43581;DHT22;29175;51.030;4.606;2024-02-28T13:02:15;12.20;99.90
43581;DHT22;29175;51.030;4.606;2024-02-28T13:04:43;12.20;99.90
43581;DHT22;29175;51.030;4.606;2024-02-28T13:07:08;12.20;99.90
43581;DHT22;29175;51.030;4.606;2024-02-28T13:09:35;12.30;99.90
43581;DHT22;29175;51.030;4.606;2024-02-28T13:12:01;12.30;99.90
43581;DHT22;29175;51.030;4.606;2024-02-28T13:14:27;12.30;99.90
43581;DHT22;29175;51.030;4.606;2024-02-28T13:16:53;12.30;99.90
43581;DHT22;29175;51.030;4.606;2024-02-28T13:19:21;12.40;99.90
43581;DHT22;29175;51.030;4.606;2024-02-28T13:21:46;12.20;99.90
43581;DHT22;29175;51.030;4.606;2024-02-28T13:24:13;12.20;99.90
43581;DHT22;29175;51.030;4.606;2024-02-28T13:26:40;12.00;99.90
43581;DHT22;29175;51.030;4.606;2024-02-28T13:29:07;11.90;99.90
43581;DHT22;29175;51.030;4.606;2024-02-28T13:31:35;12.10;99.90
43581;DHT22;29175;51.030;4.606;2024-02-28T13:34:01;12.20;99.90
43581;DHT22;29175;51.030;4.606;2024-02-28T13:36:29;12.00;99.90
43581;DHT22;29175;51.030;4.606;2024-02-28T13:38:58;12.00;99.90
43581;DHT22;29175;51.030;4.606;2024-02-28T13:41:24;11.90;99.90
43581;DHT22;29175;51.030;4.606;2024-02-28T13:43:50;12.00;99.90
43581;DHT22;29175;51.030;4.606;2024-02-28T13:46:16;12.10;99.90
43581;DHT22;29175;51.030;4.606;2024-02-28T13:48:44;12.20;99.90
43581;DHT22;29175;51.030;4.606;2024-02-28T13:51:12;12.40;99.90
43581;DHT22;29175;51.030;4.606;2024-02-28T13:53:40;12.60;99.90
43581;DHT22;29175;51.030;4.606;2024-02-28T13:56:05;12.60;99.90
43581;DHT22;29175;51.030;4.606;2024-02-28T13:58:33;12.50;99.90
43581;DHT22;29175;51.030;4.606;2024-02-28T14:01:00;12.60;99.90
43581;DHT22;29175;51.030;4.606;2024-02-28T14:03:28;12.70;99.90
43581;DHT22;29175;51.030;4.606;2024-02-28T14:05:56;12.60;99.90
43581;DHT22;29175;51.030;4.606;2024-02-28T14:08:23;12.50;99.90
43581;DHT22;29175;51.030;4.606;2024-02-28T14:10:50;12.30;99.90
43581;DHT22;29175;51.030;4.606;2024-02-28T14:13:16;12.20;99.90
43581;DHT22;29175;51.030;4.606;2024-02-28T14:15:45;12.40;99.90
43581;DHT22;29175;51.030;4.606;2024-02-28T14:18:13;12.10;99.90
43581;DHT22;29175;51.030;4.606;2024-02-28T14:20:38;11.80;99.90
43581;DHT22;29175;51.030;4.606;2024-02-28T14:23:05;12.00;99.90
43581;DHT22;29175;51.030;4.606;2024-02-28T14:25:32;12.30;99.90
43581;DHT22;29175;51.030;4.606;2024-02-28T14:28:01;12.40;99.90
43581;DHT22;29175;51.030;4.606;2024-02-28T14:30:28;12.50;99.90
43581;DHT22;29175;51.030;4.606;2024-02-28T14:32:54;12.30;99.90
43581;DHT22;29175;51.030;4.606;2024-02-28T14:35:21;12.30;99.90
43581;DHT22;29175;51.030;4.606;2024-02-28T14:37:49;12.20;99.90
43581;DHT22;29175;51.030;4.606;2024-02-28T14:40:18;12.30;99.90
43581;DHT22;29175;51.030;4.606;2024-02-28T14:42:46;12.30;99.90
43581;DHT22;29175;51.030;4.606;2024-02-28T14:45:12;12.30;99.90
43581;DHT22;29175;51.030;4.606;2024-02-28T14:47:44;11.90;99.90
43581;DHT22;29175;51.030;4.606;2024-02-28T14:50:13;11.80;99.90
43581;DHT22;29175;51.030;4.606;2024-02-28T14:52:41;11.70;99.90
43581;DHT22;29175;51.030;4.606;2024-02-28T15:05:35;11.50;99.90
43581;DHT22;29175;51.030;4.606;2024-02-28T15:08:11;11.40;99.90
43581;DHT22;29175;51.030;4.606;2024-02-28T15:10:37;11.30;99.90
43581;DHT22;29175;51.030;4.606;2024-02-28T15:13:02;11.30;99.90
43581;DHT22;29175;51.030;4.606;2024-02-28T15:15:32;11.30;99.90
43581;DHT22;29175;51.030;4.606;2024-02-28T15:18:01;11.20;99.90
43581;DHT22;29175;51.030;4.606;2024-02-28T15:20:30;10.90;99.90
43581;DHT22;29175;51.030;4.606;2024-02-28T15:23:07;11.00;99.90
43581;DHT22;29175;51.030;4.606;2024-02-28T15:25:54;11.30;99.90
43581;DHT22;29175;51.030;4.606;2024-02-28T15:28:41;11.30;99.90
43581;DHT22;29175;51.030;4.606;2024-02-28T15:31:45;11.20;99.90
43581;DHT22;29175;51.030;4.606;2024-02-28T15:35:08;11.20;99.90
43581;DHT22;29175;51.030;4.606;2024-02-28T15:38:19;10.90;99.90
43581;DHT22;29175;51.030;4.606;2024-02-28T15:41:11;10.90;99.90
43581;DHT22;29175;51.030;4.606;2024-02-28T15:43:58;11.00;99.90
43581;DHT22;29175;51.030;4.606;2024-02-28T15:47:16;11.00;99.90
43581;DHT22;29175;51.030;4.606;2024-02-28T15:49:54;10.90;99.90
43581;DHT22;29175;51.030;4.606;2024-02-28T15:52:32;10.80;99.90
43581;DHT22;29175;51.030;4.606;2024-02-28T15:55:39;10.70;99.90
43581;DHT22;29175;51.030;4.606;2024-02-28T15:58:24;10.60;99.90